Airfield :
LOGIN :

Register | Disclaimer

   EN    FR    IT 

 










Legend :    VFR   Marginal VFR   IFR   Intensive IFR   Very Intensive IFR
Visi :
Ceiling :
>= 8 km
>= 3000ft
5 to 8 km
1000 to 3000 ft
1500m to 5 km
500 to 1000 ft
800 to 1500m
200 to 500 ft
< 800m
< 200 ft
Symbols :   Thunderstorms  Fog  Heavy snow  Heavy precipitations  Wind > 20 kt
SIGMETs :     Misc.  Thunderstorms  Icing  Turbulence  Mountain Waves  Volcanic Ashes






- Airport Elevation : 614 ft
- IATA code : CRL


EBCI - Charleroi

CURRENT METAR :
  • 160620Z 22011KT 9999 SCT009 BKN015 09/07 Q1003 TEMPO BKN012

EXPIRED METARs :
  • 160550Z 22011KT 9999 SCT009 BKN015 09/07 Q1003 TEMPO BKN012
  • 160520Z 22010KT 9999 FEW009 SCT015 BKN030 09/08 Q1003 TEMPO BKN012
  • 160450Z 22009KT 9999 -SHRA FEW012 BKN030 09/07 Q1002 NOSIG
  • 160420Z 22009KT 9999 -SHRA FEW012 BKN030 09/07 Q1002 NOSIG
  • 160350Z 21008KT 9999 -SHRA FEW012 BKN030 09/08 Q1002 NOSIG

TAF TAF EBCI
Valid from the 16 at 06:00 until the 17 at 12:00 UTC


160510Z 1606/1712 23010KT 9999 FEW020TCU SCT040
PROB30
TEMPO 1606/1607 BKN008
TEMPO 1609/1621 4000 SHRA
PROB30
TEMPO 1611/1620 VRB15G25KT 2500 TSRAGS
BECMG 1702/1704 BKN010
PROB40
TEMPO 1704/1712 24015G25KT 4000 RA SHRA BKN006 BKN014CB
PROB30
TEMPO 1708/1712 TSRA



MET'MAP, your aeronautical weather chart ! - Copyright ORBIFLY December 2007 - Disclaimer

ORBIFLY MET'MAP TEAM :

Programming & Development : Alexandra Zaïnal
Concept & original design : Baudouin d'Aumeries
Assistance for programming : Marc-Olivier Méhu
Technical & hardware support : Manuel Goepfert

Contact : metmap@orbifly.com




SOURCES & CREDITS :

   NOAA